Time;durP1;ratioP1;P1;durP2;ratioP2;P2;SDS_P1;SDS_P2;PMS_P1;PMS_P2;Temp;Humidity;BMP_temperature;BMP_pressure;BME280_temperature;BME280_humidity;BME280_pressure;Samples;Min_cycle;Max_cycle;Signal;HPM_P1;HPM_P2
2022/04/04 00:01:56;;;;;;;6.53;1.58;;;1.60;99.90;;;;;;6193060;23;20468;-89
2022/04/04 00:04:22;;;;;;;2.75;1.45;;;2.60;99.90;;;;;;6195187;23;20038;-90
2022/04/04 00:06:50;;;;;;;2.53;1.33;;;2.70;99.90;;;;;;6193540;23;20523;-89
2022/04/04 00:09:21;;;;;;;4.22;1.63;;;3.70;99.90;;;;;;6192417;23;20020;-89
2022/04/04 00:11:52;;;;;;;5.40;1.88;;;3.80;99.90;;;;;;6192046;23;20020;-90
2022/04/04 00:14:21;;;;;;;1.17;1.00;;;2.50;99.90;;;;;;6191998;23;20020;-89
2022/04/04 00:17:07;;;;;;;6.60;1.55;;;3.60;99.90;;;;;;6216905;23;20523;-89
2022/04/04 00:19:33;;;;;;;1.63;1.50;;;1.80;99.90;;;;;;6170240;23;20042;-88
2022/04/04 00:22:01;;;;;;;2.17;1.98;;;2.50;99.90;;;;;;6191846;23;20457;-88
2022/04/04 00:24:27;;;;;;;2.80;1.73;;;2.50;99.90;;;;;;6220603;23;20023;-88
2022/04/04 00:26:53;;;;;;;3.80;2.25;;;2.60;99.90;;;;;;6220864;23;20239;-89
2022/04/04 00:29:24;;;;;;;1.77;1.67;;;2.60;99.90;;;;;;6195789;23;20345;-89
2022/04/04 00:31:51;;;;;;;1.70;1.27;;;2.60;99.90;;;;;;6170087;23;20027;-90
2022/04/04 00:34:20;;;;;;;2.08;1.50;;;3.70;99.90;;;;;;6194983;23;20472;-89
2022/04/04 00:36:47;;;;;;;3.17;1.77;;;3.20;99.90;;;;;;6194197;23;20024;-87
2022/04/04 00:39:19;;;;;;;5.95;2.03;;;3.50;99.90;;;;;;6195056;23;20024;-87
2022/04/04 00:41:52;;;;;;;3.08;1.30;;;2.10;99.90;;;;;;6219291;23;20115;-89
2022/04/04 00:44:18;;;;;;;3.05;2.05;;;2.00;99.90;;;;;;6169769;23;20043;-88
2022/04/04 00:46:44;;;;;;;5.03;1.98;;;2.70;99.90;;;;;;6169107;23;20446;-88
2022/04/04 00:49:15;;;;;;;1.75;1.65;;;2.60;99.90;;;;;;6171285;23;20058;-89
2022/04/04 00:51:54;;;;;;;1.30;1.20;;;2.60;99.90;;;;;;6195346;23;20027;-89
2022/04/04 00:54:21;;;;;;;3.00;2.80;;;2.60;99.90;;;;;;6194972;23;20480;-88
2022/04/04 00:56:48;;;;;;;6.18;2.13;;;3.60;99.90;;;;;;6193085;23;20518;-89
2022/04/04 00:59:20;;;;;;;1.55;1.17;;;2.60;99.90;;;;;;6194270;23;20023;-89
2022/04/04 01:01:49;;;;;;;3.30;2.30;;;3.70;99.90;;;;;;6219071;23;20097;-88
2022/04/04 01:04:18;;;;;;;3.40;1.98;;;3.80;99.90;;;;;;6194398;23;20012;-88
2022/04/04 01:06:45;;;;;;;1.95;1.55;;;2.70;99.90;;;;;;6194003;23;20027;-88
2022/04/04 01:09:16;;;;;;;2.13;1.63;;;2.70;99.90;;;;;;6194269;23;20019;-88
2022/04/04 01:12:01;;;;;;;2.70;2.50;;;2.80;99.90;;;;;;6193231;23;20123;-89
2022/04/04 01:14:30;;;;;;;4.72;2.28;;;4.00;99.90;;;;;;6194675;23;20016;-88
2022/04/04 01:17:07;;;;;;;2.70;1.85;;;2.90;99.90;;;;;;6170137;23;20069;-88
2022/04/04 01:19:38;;;;;;;3.03;2.45;;;2.90;99.90;;;;;;6194972;23;20020;-89
2022/04/04 01:22:21;;;;;;;3.50;2.15;;;2.90;99.90;;;;;;6218120;23;20016;-89
2022/04/04 01:24:51;;;;;;;4.57;2.25;;;2.90;99.90;;;;;;6218982;23;20023;-88
2022/04/04 01:27:22;;;;;;;3.80;2.55;;;2.70;99.90;;;;;;6220641;23;20019;-88
2022/04/04 01:29:53;;;;;;;8.80;2.05;;;3.00;99.90;;;;;;6168308;23;20022;-88
2022/04/04 01:32:21;;;;;;;6.43;1.92;;;2.90;99.90;;;;;;6193901;23;20027;-88
2022/04/04 01:34:56;;;;;;;3.40;2.25;;;2.30;99.90;;;;;;6168623;23;20449;-89
2022/04/04 01:37:22;;;;;;;5.18;3.67;;;4.10;99.90;;;;;;6194144;23;20028;-88
2022/04/04 01:39:48;;;;;;;4.80;3.58;;;3.10;99.90;;;;;;6193054;23;20516;-87
2022/04/04 01:42:19;;;;;;;5.55;3.53;;;3.10;99.90;;;;;;6169213;23;20020;-89
2022/04/04 01:44:48;;;;;;;5.65;3.33;;;2.30;99.90;;;;;;6167792;23;20095;-89
2022/04/04 01:47:16;;;;;;;8.10;3.47;;;3.20;99.90;;;;;;6194148;23;20051;-88
2022/04/04 01:49:42;;;;;;;4.85;3.25;;;3.20;99.90;;;;;;6193668;23;20059;-89
2022/04/04 01:52:11;;;;;;;8.17;3.73;;;3.20;99.90;;;;;;6192770;23;20468;-89
2022/04/04 01:54:47;;;;;;;3.88;2.58;;;3.40;99.90;;;;;;6193630;23;20016;-90
2022/04/04 01:57:18;;;;;;;4.57;3.15;;;3.90;99.90;;;;;;6193474;23;20020;-89
2022/04/04 01:59:44;;;;;;;5.40;3.17;;;3.30;99.90;;;;;;6193835;23;20024;-89
2022/04/04 02:02:13;;;;;;;4.50;3.20;;;4.50;99.90;;;;;;6194496;23;20027;-88
2022/04/04 02:04:52;;;;;;;3.65;3.28;;;3.50;99.90;;;;;;6193866;23;20016;-89
2022/04/04 02:07:21;;;;;;;3.67;3.17;;;3.30;99.90;;;;;;6194684;23;20103;-88
2022/04/04 02:09:57;;;;;;;8.68;4.15;;;3.30;99.90;;;;;;6193237;23;20078;-88
2022/04/04 02:12:26;;;;;;;4.82;3.58;;;3.40;99.90;;;;;;6171099;23;20063;-89
2022/04/04 02:14:59;;;;;;;4.40;3.38;;;4.30;99.90;;;;;;6167223;23;20028;-88
2022/04/04 02:17:25;;;;;;;7.78;4.03;;;3.40;99.90;;;;;;6194107;23;20027;-88
2022/04/04 02:19:53;;;;;;;4.22;2.75;;;3.40;99.90;;;;;;6192302;23;20013;-89
2022/04/04 02:22:21;;;;;;;5.78;3.45;;;3.50;99.90;;;;;;6193920;23;20028;-88
2022/04/04 02:24:57;;;;;;;8.32;4.13;;;3.50;99.90;;;;;;6192908;23;20012;-88
2022/04/04 02:27:26;;;;;;;5.72;4.53;;;3.50;99.90;;;;;;6193489;23;20102;-87
2022/04/04 02:29:52;;;;;;;4.15;3.50;;;3.60;99.90;;;;;;6192709;23;20380;-89
2022/04/04 02:32:19;;;;;;;5.05;3.42;;;3.60;99.90;;;;;;6194109;23;20019;-88
2022/04/04 02:35:07;;;;;;;6.03;4.20;;;4.80;99.90;;;;;;6218622;23;20016;-88
2022/04/04 02:37:32;;;;;;;3.78;2.65;;;3.10;99.90;;;;;;6218431;23;20060;-88
2022/04/04 02:39:58;;;;;;;7.00;4.53;;;2.70;99.90;;;;;;6192164;23;20012;-88
2022/04/04 02:42:31;;;;;;;4.85;3.15;;;3.60;99.90;;;;;;6218166;23;20457;-88
2022/04/04 02:45:11;;;;;;;6.45;3.25;;;3.60;99.90;;;;;;6192180;23;20016;-88
2022/04/04 02:47:37;;;;;;;4.65;3.40;;;3.60;99.90;;;;;;6192990;23;20106;-88
2022/04/04 02:50:11;;;;;;;4.03;3.50;;;3.60;99.90;;;;;;6193341;23;20051;-87
2022/04/04 02:52:38;;;;;;;6.43;3.35;;;3.70;99.90;;;;;;6193917;23;20085;-87
2022/04/04 02:57:56;;;;;;;8.80;3.50;;;3.70;99.90;;;;;;6218209;23;20028;-87
2022/04/04 03:00:26;;;;;;;6.47;4.68;;;3.10;99.90;;;;;;6193545;23;20472;-88
2022/04/04 03:02:53;;;;;;;8.48;3.53;;;3.10;99.90;;;;;;6193460;23;20024;-88
2022/04/04 03:05:34;;;;;;;;;;;5.00;99.90;;;;;;6192908;23;20491;-88
2022/04/04 03:08:04;;;;;;;4.78;4.13;;;4.50;99.90;;;;;;6193610;23;19915;-87
2022/04/04 03:10:31;;;;;;;3.42;2.80;;;3.70;99.90;;;;;;6193567;23;20082;-87
2022/04/04 03:13:00;;;;;;;8.43;3.95;;;3.70;99.90;;;;;;6192523;23;20012;-87
2022/04/04 03:15:28;;;;;;;4.82;2.92;;;3.70;99.90;;;;;;6193129;23;20028;-88
2022/04/04 03:17:58;;;;;;;7.75;4.53;;;3.60;99.90;;;;;;6193136;23;20526;-87
2022/04/04 03:20:28;;;;;;;7.45;3.50;;;3.80;99.90;;;;;;6192435;23;20091;-87
2022/04/04 03:22:55;;;;;;;5.05;4.10;;;3.80;99.90;;;;;;6192805;23;20071;-87
2022/04/04 03:25:23;;;;;;;10.05;4.75;;;3.90;99.90;;;;;;6192908;23;20022;-87
2022/04/04 03:27:53;;;;;;;9.00;4.40;;;3.80;99.90;;;;;;6192671;23;20038;-88
2022/04/04 03:30:32;;;;;;;6.68;3.97;;;3.80;99.90;;;;;;6217592;23;20016;-89
2022/04/04 03:33:00;;;;;;;6.53;4.47;;;4.00;99.90;;;;;;6193328;23;20054;-88
2022/04/04 03:35:33;;;;;;;7.70;3.90;;;3.90;99.90;;;;;;6217972;23;20020;-88
2022/04/04 03:38:03;;;;;;;8.98;4.68;;;5.00;99.90;;;;;;6192492;23;20067;-87
2022/04/04 03:40:29;;;;;;;8.30;5.70;;;3.90;99.90;;;;;;6193194;23;20343;-88
2022/04/04 03:43:04;;;;;;;9.43;4.80;;;3.10;99.90;;;;;;6192740;23;20017;-88
2022/04/04 03:45:32;;;;;;;6.65;4.03;;;3.30;99.90;;;;;;6192555;23;20047;-88
2022/04/04 03:48:01;;;;;;;8.43;4.65;;;4.10;99.90;;;;;;6193368;23;20015;-87
2022/04/04 03:50:29;;;;;;;8.35;5.38;;;4.10;99.90;;;;;;6192268;23;20048;-88
2022/04/04 03:53:00;;;;;;;6.75;5.45;;;4.10;99.90;;;;;;6193889;23;20016;-88
2022/04/04 03:55:32;;;;;;;7.97;4.82;;;4.10;99.90;;;;;;6218836;23;20074;-87
2022/04/04 03:58:02;;;;;;;7.72;5.93;;;4.20;99.90;;;;;;6192321;23;20020;-87
2022/04/04 04:00:30;;;;;;;10.45;6.13;;;4.20;99.90;;;;;;6192574;23;20039;-89
2022/04/04 04:02:59;;;;;;;10.13;5.13;;;4.20;99.90;;;;;;6217166;23;20048;-87
2022/04/04 04:05:27;;;;;;;15.80;5.13;;;4.30;99.90;;;;;;6167079;23;20031;-89
2022/04/04 04:07:57;;;;;;;7.82;4.85;;;4.30;99.90;;;;;;6192059;23;20024;-87
2022/04/04 04:10:23;;;;;;;6.93;4.38;;;3.30;99.90;;;;;;6167718;23;20623;-88
2022/04/04 04:12:53;;;;;;;8.07;5.10;;;4.30;99.90;;;;;;6192647;23;20016;-87
2022/04/04 04:15:24;;;;;;;11.25;5.65;;;4.30;99.90;;;;;;6191875;23;20107;-88
2022/04/04 04:17:52;;;;;;;10.05;5.22;;;4.80;99.90;;;;;;6192366;23;20016;-87
2022/04/04 04:20:32;;;;;;;8.63;3.67;;;4.30;99.90;;;;;;6217042;23;20113;-87
2022/04/04 04:23:09;;;;;;;10.32;4.80;;;4.30;99.90;;;;;;6192254;23;20136;-87
2022/04/04 04:25:44;;;;;;;7.63;5.78;;;4.70;99.90;;;;;;6192584;23;20044;-87
2022/04/04 04:28:12;;;;;;;8.75;4.78;;;4.30;99.90;;;;;;6167468;23;20020;-87
2022/04/04 04:30:39;;;;;;;7.25;3.72;;;4.30;99.90;;;;;;6193360;23;20353;-87
2022/04/04 04:33:10;;;;;;;8.43;4.57;;;5.50;99.90;;;;;;6192772;23;20015;-87
2022/04/04 04:35:37;;;;;;;5.05;3.58;;;5.20;99.90;;;;;;6179527;23;20063;-88
2022/04/04 04:38:07;;;;;;;7.47;5.05;;;4.30;99.90;;;;;;6163167;23;20051;-87
2022/04/04 04:40:34;;;;;;;9.35;4.07;;;4.20;99.90;;;;;;6162038;23;20051;-89
2022/04/04 04:43:03;;;;;;;9.75;5.07;;;4.20;99.90;;;;;;6162111;23;20349;-88
2022/04/04 04:45:32;;;;;;;10.18;4.72;;;5.20;99.90;;;;;;6163089;23;20052;-88
2022/04/04 04:48:05;;;;;;;8.27;4.82;;;4.20;99.90;;;;;;6161109;23;20079;-89
2022/04/04 04:50:51;;;;;;;5.93;4.32;;;4.20;99.90;;;;;;6138637;23;20019;-89
2022/04/04 04:53:48;;;;;;;10.15;4.43;;;4.30;99.90;;;;;;6161995;23;20013;-88
2022/04/04 04:56:35;;;;;;;15.05;4.80;;;4.00;99.90;;;;;;6144060;23;20099;-88
2022/04/04 04:59:29;;;;;;;4.18;2.75;;;4.30;99.90;;;;;;6163675;23;20020;-87
2022/04/04 05:02:15;;;;;;;8.50;5.50;;;4.10;99.90;;;;;;6139745;23;20016;-88
2022/04/04 05:04:48;;;;;;;10.60;5.73;;;4.30;99.90;;;;;;6139055;23;20016;-88
2022/04/04 05:07:22;;;;;;;12.48;5.03;;;4.30;99.90;;;;;;6161866;23;20017;-87
2022/04/04 05:10:23;;;;;;;6.45;4.50;;;4.30;99.90;;;;;;6163453;23;20465;-87
2022/04/04 05:15:54;;;;;;;7.85;4.35;;;4.20;99.90;;;;;;6188973;23;20137;-87
2022/04/04 05:18:26;;;;;;;6.90;4.10;;;4.20;99.90;;;;;;6164074;23;20017;-87
2022/04/04 05:21:12;;;;;;;6.85;4.53;;;4.20;99.90;;;;;;6189410;23;20453;-86
2022/04/04 05:23:41;;;;;;;8.68;4.78;;;4.20;99.90;;;;;;6164904;23;20020;-85
2022/04/04 05:26:07;;;;;;;8.77;5.60;;;4.30;99.90;;;;;;6164665;23;20013;-85
2022/04/04 05:28:35;;;;;;;4.10;3.75;;;3.80;99.90;;;;;;6188201;23;20082;-85
2022/04/04 05:31:04;;;;;;;9.30;5.32;;;4.10;99.90;;;;;;6164138;23;20410;-84
2022/04/04 05:33:30;;;;;;;7.75;5.22;;;4.10;99.90;;;;;;6139663;23;20023;-85
2022/04/04 05:35:55;;;;;;;8.77;6.47;;;4.00;99.90;;;;;;6181110;23;20016;-84
2022/04/04 05:38:21;;;;;;;11.75;4.43;;;4.10;99.90;;;;;;6193299;23;20024;-84
2022/04/04 05:40:55;;;;;;;6.33;4.67;;;4.10;99.90;;;;;;6193201;23;20046;-84
2022/04/04 05:43:20;;;;;;;14.48;5.82;;;4.00;99.90;;;;;;6193383;23;20020;-84
2022/04/04 05:45:49;;;;;;;9.10;5.43;;;4.10;99.90;;;;;;6169017;23;20013;-85
2022/04/04 05:48:15;;;;;;;7.88;5.15;;;4.00;99.90;;;;;;6218443;23;20048;-87
2022/04/04 05:50:43;;;;;;;7.47;4.80;;;4.00;99.90;;;;;;6170147;23;20012;-84
2022/04/04 05:53:09;;;;;;;13.43;6.07;;;4.00;99.90;;;;;;6218974;23;20035;-84
2022/04/04 05:55:35;;;;;;;8.17;5.73;;;4.10;99.90;;;;;;6192985;23;20024;-84
2022/04/04 05:58:04;;;;;;;6.77;5.27;;;4.00;99.90;;;;;;6168851;23;20020;-85
2022/04/04 06:00:30;;;;;;;6.85;5.10;;;4.10;99.90;;;;;;6193488;23;20103;-84
2022/04/04 06:02:56;;;;;;;10.40;6.13;;;4.10;99.90;;;;;;6193854;23;20020;-86
2022/04/04 06:05:22;;;;;;;11.23;5.03;;;3.80;99.90;;;;;;6192669;23;20090;-85
2022/04/04 06:07:48;;;;;;;5.88;5.18;;;5.00;99.90;;;;;;6193439;23;20441;-84
2022/04/04 06:10:15;;;;;;;6.68;5.93;;;5.10;99.90;;;;;;6192670;23;20024;-84
2022/04/04 06:12:43;;;;;;;7.40;4.75;;;4.00;99.90;;;;;;6192804;23;20020;-84
2022/04/04 06:15:12;;;;;;;9.95;7.00;;;4.90;99.90;;;;;;6193316;23;20475;-85
2022/04/04 06:17:42;;;;;;;5.70;4.90;;;4.00;99.90;;;;;;6194271;23;20484;-85
2022/04/04 06:20:09;;;;;;;10.82;6.80;;;4.10;99.90;;;;;;6169396;23;20129;-84
2022/04/04 06:22:39;;;;;;;8.48;6.13;;;4.00;99.90;;;;;;6169382;23;20026;-85
2022/04/04 06:25:14;;;;;;;9.13;5.00;;;4.00;99.90;;;;;;6168698;23;20017;-84
2022/04/04 06:27:46;;;;;;;6.40;4.50;;;4.00;99.90;;;;;;6193110;23;20031;-85
2022/04/04 06:30:12;;;;;;;4.88;4.22;;;3.90;99.90;;;;;;6194264;23;20130;-84
2022/04/04 06:32:48;;;;;;;15.88;6.18;;;4.00;99.90;;;;;;6167622;23;20020;-84
2022/04/04 06:35:17;;;;;;;12.38;5.88;;;4.00;99.90;;;;;;6209818;23;20374;-85
2022/04/04 06:37:45;;;;;;;6.18;4.63;;;4.50;99.90;;;;;;6162934;23;20028;-84
2022/04/04 06:40:18;;;;;;;8.50;5.32;;;4.20;99.90;;;;;;6163625;23;20439;-85
2022/04/04 06:42:44;;;;;;;7.63;4.63;;;3.90;99.90;;;;;;6163409;23;20809;-84
2022/04/04 06:45:13;;;;;;;8.07;4.97;;;3.90;99.90;;;;;;6163482;23;20051;-84
2022/04/04 06:47:49;;;;;;;7.85;5.38;;;3.90;99.90;;;;;;6162393;23;20048;-90
2022/04/04 06:50:14;;;;;;;7.97;6.07;;;3.90;99.90;;;;;;6141527;23;20027;-88
2022/04/04 06:52:44;;;;;;;10.60;6.07;;;4.00;99.90;;;;;;6162473;23;20013;-85
2022/04/04 06:55:11;;;;;;;10.07;4.90;;;4.00;99.90;;;;;;6187970;23;20103;-84
2022/04/04 06:57:38;;;;;;;11.15;5.40;;;3.90;99.90;;;;;;6189404;23;20017;-85
2022/04/04 07:00:08;;;;;;;17.65;6.10;;;3.90;99.90;;;;;;6164062;23;20027;-85
2022/04/04 07:02:37;;;;;;;7.32;4.57;;;3.90;99.90;;;;;;6187814;23;20027;-84
2022/04/04 07:05:05;;;;;;;7.05;5.20;;;3.90;99.90;;;;;;6163398;23;20016;-84
2022/04/04 07:07:34;;;;;;;7.20;5.07;;;3.60;99.90;;;;;;6161963;23;20082;-84
2022/04/04 07:10:03;;;;;;;12.25;5.38;;;3.90;99.90;;;;;;6162865;23;20397;-84
2022/04/04 07:12:29;;;;;;;12.70;6.75;;;3.10;99.90;;;;;;6160746;23;20095;-85
2022/04/04 07:14:58;;;;;;;5.33;4.10;;;4.00;99.90;;;;;;6162818;23;20048;-85
2022/04/04 07:17:24;;;;;;;10.23;5.22;;;3.90;99.90;;;;;;6163872;23;20017;-85
2022/04/04 07:19:53;;;;;;;8.55;5.68;;;4.90;99.90;;;;;;6162921;23;20111;-86
2022/04/04 07:22:21;;;;;;;11.98;5.97;;;5.20;99.90;;;;;;6187510;23;20044;-86
2022/04/04 07:24:47;;;;;;;12.25;6.93;;;3.70;99.90;;;;;;6186999;23;20060;-84
2022/04/04 07:27:13;;;;;;;9.40;5.13;;;4.50;99.90;;;;;;6187783;23;20020;-85
2022/04/04 07:29:46;;;;;;;12.30;6.63;;;4.00;99.90;;;;;;6162181;23;20469;-86
2022/04/04 07:32:12;;;;;;;11.35;6.35;;;4.10;99.90;;;;;;6162640;23;20022;-84
2022/04/04 07:34:39;;;;;;;5.25;4.82;;;3.60;99.90;;;;;;6188249;23;20052;-87
2022/04/04 07:37:06;;;;;;;16.40;7.47;;;4.90;99.90;;;;;;6193234;23;20441;-86
2022/04/04 07:39:39;;;;;;;7.33;5.93;;;4.00;99.90;;;;;;6192562;23;20506;-85
2022/04/04 07:42:06;;;;;;;7.05;4.65;;;4.00;99.90;;;;;;6192603;23;20258;-86
2022/04/04 07:44:39;;;;;;;15.15;8.32;;;4.00;99.90;;;;;;6216763;23;20020;-86
2022/04/04 07:47:06;;;;;;;10.70;7.00;;;3.10;99.90;;;;;;6218271;23;20012;-86
2022/04/04 07:49:32;;;;;;;9.80;5.90;;;4.10;99.90;;;;;;6192333;23;20090;-86
2022/04/04 07:52:00;;;;;;;5.10;4.60;;;4.00;99.90;;;;;;6217246;23;20449;-86
2022/04/04 07:54:26;;;;;;;8.50;5.53;;;4.00;99.90;;;;;;6192368;23;20341;-85
2022/04/04 07:56:59;;;;;;;10.57;7.10;;;3.40;99.90;;;;;;6167779;23;20020;-86
2022/04/04 07:59:25;;;;;;;10.40;5.55;;;4.00;99.90;;;;;;6193182;23;20047;-85
2022/04/04 08:01:54;;;;;;;11.53;7.60;;;4.10;99.90;;;;;;6192294;23;20016;-86
2022/04/04 08:04:25;;;;;;;15.85;5.90;;;5.30;99.90;;;;;;6217272;23;20359;-86
2022/04/04 08:06:55;;;;;;;11.43;6.70;;;4.20;99.90;;;;;;6191897;23;20020;-85
2022/04/04 08:09:24;;;;;;;8.27;5.90;;;4.20;99.90;;;;;;6192421;23;20020;-86
2022/04/04 08:11:52;;;;;;;8.88;5.43;;;4.70;99.90;;;;;;6167948;23;20133;-87
2022/04/04 08:14:25;;;;;;;7.53;5.82;;;4.20;99.90;;;;;;6167496;23;20016;-86
2022/04/04 08:16:56;;;;;;;8.23;5.32;;;4.20;99.90;;;;;;6168633;23;20062;-86
2022/04/04 08:19:29;;;;;;;8.65;6.40;;;4.30;99.90;;;;;;6192643;23;20388;-86
2022/04/04 08:22:01;;;;;;;7.38;5.32;;;4.40;99.90;;;;;;6194195;23;20016;-85
2022/04/04 08:24:27;;;;;;;9.68;6.53;;;4.40;99.90;;;;;;6218040;23;20016;-86
2022/04/04 08:26:55;;;;;;;8.20;6.73;;;4.30;99.90;;;;;;6192387;23;20105;-86
2022/04/04 08:29:23;;;;;;;8.63;5.97;;;4.80;99.90;;;;;;6218046;23;20282;-85
2022/04/04 08:31:54;;;;;;;9.05;5.38;;;4.40;99.90;;;;;;6217741;23;20411;-85
2022/04/04 08:34:20;;;;;;;8.30;5.85;;;4.40;99.90;;;;;;6145425;23;20087;-86
2022/04/04 08:36:53;;;;;;;7.60;5.90;;;4.00;99.90;;;;;;6192796;23;20483;-87
2022/04/04 08:39:32;;;;;;;9.77;7.60;;;5.60;99.90;;;;;;6220130;23;20024;-87
2022/04/04 08:42:02;;;;;;;8.75;5.43;;;4.90;99.90;;;;;;6168028;23;20095;-87
2022/04/04 08:44:39;;;;;;;5.53;4.93;;;4.60;99.90;;;;;;6219750;23;20012;-90
2022/04/04 08:47:15;;;;;;;5.43;4.65;;;5.10;99.90;;;;;;6173100;23;20073;-90
2022/04/04 08:49:46;;;;;;;7.17;3.90;;;4.60;99.90;;;;;;6194749;23;20109;-88
2022/04/04 08:52:16;;;;;;;6.57;4.72;;;4.70;99.90;;;;;;6195558;23;20027;-88
2022/04/04 08:58:02;;;;;;;;;;;;;;;;;;;;;
2022/04/04 09:00:36;;;;;;;3.28;2.20;;;4.60;99.90;;;;;;6182851;23;20016;-86
2022/04/04 09:03:30;;;;;;;6.20;3.47;;;4.70;99.90;;;;;;6219208;23;20066;-86
2022/04/04 09:06:12;;;;;;;3.97;3.63;;;3.90;99.90;;;;;;6193975;23;20412;-86
2022/04/04 09:08:55;;;;;;;7.22;2.35;;;4.80;99.90;;;;;;6194023;23;20020;-86
2022/04/04 09:11:41;;;;;;;4.57;2.05;;;6.10;99.90;;;;;;6194671;23;20016;-87
2022/04/04 09:14:20;;;;;;;;;;;;;;;;;;;;;
2022/04/04 09:16:54;;;;;;;2.42;2.00;;;4.90;99.90;;;;;;6197722;23;20024;-87
2022/04/04 09:19:52;;;;;;;2.60;2.25;;;4.80;99.90;;;;;;6220501;23;20111;-86
2022/04/04 09:22:21;;;;;;;1.83;1.48;;;4.80;99.90;;;;;;6178732;23;20059;-88
2022/04/04 09:25:12;;;;;;;;;;;;;;;;;;;;;
2022/04/04 09:27:44;;;;;;;2.65;2.00;;;4.80;99.90;;;;;;6223297;23;20054;-90
2022/04/04 09:30:27;;;;;;;1.47;1.37;;;4.90;99.90;;;;;;6194789;23;20016;-89
2022/04/04 09:32:55;;;;;;;1.80;1.70;;;5.80;99.90;;;;;;6194076;23;20078;-89
2022/04/04 09:35:28;;;;;;;1.50;1.40;;;4.90;99.90;;;;;;6194787;23;20027;-88
2022/04/04 09:37:54;;;;;;;2.70;1.77;;;5.20;99.90;;;;;;6171254;23;20024;-89
2022/04/04 09:40:24;;;;;;;3.30;1.60;;;5.00;99.90;;;;;;6194753;23;20016;-89
2022/04/04 09:42:55;;;;;;;3.17;2.20;;;5.00;99.90;;;;;;6145217;23;20023;-89
2022/04/04 09:45:24;;;;;;;3.25;1.92;;;5.00;99.90;;;;;;6194189;23;20438;-90
2022/04/04 09:47:57;;;;;;;3.20;2.17;;;5.10;99.90;;;;;;6194662;23;20020;-88
2022/04/04 09:50:45;;;;;;;5.45;2.00;;;5.00;99.90;;;;;;6219417;23;20079;-89
2022/04/04 09:53:24;;;;;;;2.97;2.60;;;5.00;99.90;;;;;;6246727;23;20020;-88
2022/04/04 09:56:27;;;;;;;2.42;1.70;;;5.00;99.90;;;;;;6220373;23;20020;-89
2022/04/04 09:59:01;;;;;;;1.80;1.67;;;5.70;99.90;;;;;;6194561;23;20062;-88
2022/04/04 10:01:42;;;;;;;;;;;;;;;;;;;;;
2022/04/04 10:04:09;;;;;;;1.30;1.20;;;5.10;99.90;;;;;;6219109;23;20023;-87
2022/04/04 10:06:38;;;;;;;2.85;1.88;;;5.20;99.90;;;;;;6169804;23;20016;-87
2022/04/04 10:09:04;;;;;;;2.20;1.85;;;5.20;99.90;;;;;;6194094;23;20098;-87
2022/04/04 10:11:34;;;;;;;2.33;1.87;;;5.20;99.90;;;;;;6194673;23;20054;-87
2022/04/04 10:14:01;;;;;;;1.38;0.98;;;4.40;99.90;;;;;;6219374;23;20027;-87
2022/04/04 10:16:33;;;;;;;2.65;1.65;;;5.20;99.90;;;;;;6219391;23;20106;-88
2022/04/04 10:19:02;;;;;;;3.58;1.88;;;4.60;99.90;;;;;;6219189;23;20534;-90
2022/04/04 10:21:35;;;;;;;1.60;1.50;;;5.30;99.90;;;;;;6193611;23;20020;-91
2022/04/04 10:24:11;;;;;;;1.95;1.60;;;4.40;99.90;;;;;;6192846;23;20471;-89
2022/04/04 10:27:00;;;;;;;3.85;2.25;;;5.20;99.90;;;;;;6193679;23;20023;-90
2022/04/04 10:29:48;;;;;;;;;;;;;;;;;;;;;
2022/04/04 10:32:27;;;;;;;1.77;1.67;;;5.30;99.90;;;;;;6217906;23;20019;-91
2022/04/04 10:34:56;;;;;;;3.20;2.20;;;5.30;99.90;;;;;;6192621;23;20028;-90
2022/04/04 10:37:30;;;;;;;1.95;1.70;;;5.30;99.90;;;;;;6192868;23;20456;-90
2022/04/04 10:39:56;;;;;;;2.67;2.47;;;5.30;99.90;;;;;;6192815;23;20034;-90
2022/04/04 10:42:31;;;;;;;3.87;2.03;;;4.50;99.90;;;;;;6193867;23;20461;-89
2022/04/04 10:45:15;;;;;;;7.47;2.67;;;5.40;99.90;;;;;;6192935;23;20694;-90
2022/04/04 10:47:44;;;;;;;4.78;1.75;;;5.40;99.90;;;;;;6193769;23;20023;-91
2022/04/04 10:50:23;;;;;;;2.35;1.80;;;4.80;99.90;;;;;;6192563;23;20012;-91
2022/04/04 10:52:59;;;;;;;1.23;1.10;;;5.40;99.90;;;;;;6193432;23;20020;-91
2022/04/04 10:55:34;;;;;;;1.35;1.25;;;5.50;99.90;;;;;;6193453;23;20538;-90
2022/04/04 10:58:15;;;;;;;1.98;1.50;;;5.50;99.90;;;;;;6193199;23;20016;-90
2022/04/04 11:01:01;;;;;;;1.35;1.25;;;6.10;99.90;;;;;;6218438;23;20016;-92
2022/04/04 11:03:38;;;;;;;1.33;1.13;;;5.60;99.90;;;;;;6193218;23;20105;-93
2022/04/04 11:09:11;;;;;;;1.67;1.40;;;5.60;99.90;;;;;;6216108;23;20024;-90
2022/04/04 11:11:48;;;;;;;1.45;1.35;;;5.60;99.90;;;;;;6191707;23;20020;-91
2022/04/04 11:14:42;;;;;;;2.38;1.90;;;5.70;99.90;;;;;;6191215;23;20456;-90
2022/04/04 11:18:00;;;;;;;1.95;1.75;;;5.70;99.90;;;;;;6177684;23;20169;-90
2022/04/04 11:20:11;;;;;;;6.75;1.50;;;5.80;99.90;;;;;;6195446;23;20473;-89
2022/04/04 11:22:45;;;;;;;2.45;1.30;;;5.80;99.90;;;;;;6192301;23;20105;-90
2022/04/04 11:25:17;;;;;;;2.22;1.55;;;5.20;99.90;;;;;;6191333;23;20433;-89
2022/04/04 11:27:48;;;;;;;5.30;1.92;;;5.30;99.90;;;;;;6217046;23;20475;-91
2022/04/04 11:30:20;;;;;;;1.35;1.10;;;5.90;99.90;;;;;;6216267;23;20023;-90
2022/04/04 11:32:49;;;;;;;1.85;1.38;;;5.90;99.90;;;;;;6217154;23;20012;-90
2022/04/04 11:35:27;;;;;;;2.42;1.67;;;5.90;99.90;;;;;;6216255;23;20012;-85
2022/04/04 11:38:02;;;;;;;1.63;1.38;;;5.50;99.90;;;;;;6192723;23;20082;-88
2022/04/04 11:40:42;;;;;;;1.70;1.27;;;6.00;99.90;;;;;;6192181;23;20436;-92
2022/04/04 11:43:16;;;;;;;1.45;1.13;;;5.70;99.90;;;;;;6168568;23;20020;-94
2022/04/04 11:45:48;;;;;;;2.38;1.55;;;6.10;99.90;;;;;;6192477;23;20016;-94
2022/04/04 11:48:17;;;;;;;1.83;1.10;;;6.30;99.90;;;;;;6216498;23;20097;-92
2022/04/04 11:50:44;;;;;;;1.40;1.30;;;5.50;99.90;;;;;;6192485;23;20019;-93
2022/04/04 11:53:17;;;;;;;1.90;1.10;;;6.20;99.90;;;;;;6216815;23;20016;-93
2022/04/04 11:55:46;;;;;;;1.95;0.98;;;6.20;99.90;;;;;;6217480;23;20099;-93
2022/04/04 11:58:20;;;;;;;1.35;0.93;;;6.30;99.90;;;;;;6216160;23;20027;-96
2022/04/04 12:00:55;;;;;;;1.73;1.25;;;6.30;99.90;;;;;;6192936;23;20448;-92
2022/04/04 12:03:23;;;;;;;0.60;0.60;;;6.30;99.90;;;;;;6217203;23;20023;-92
2022/04/04 12:05:53;;;;;;;0.82;0.80;;;5.60;99.90;;;;;;6217879;23;20019;-93
2022/04/04 12:08:27;;;;;;;3.03;0.95;;;6.40;99.90;;;;;;6191956;23;20373;-92
2022/04/04 12:10:52;;;;;;;1.02;0.80;;;6.50;99.90;;;;;;6167908;23;20016;-93
2022/04/04 12:13:26;;;;;;;1.33;0.80;;;6.40;99.90;;;;;;6191786;23;20405;-94
2022/04/04 12:15:58;;;;;;;1.65;1.13;;;6.50;99.90;;;;;;6192393;23;20031;-93
2022/04/04 12:18:42;;;;;;;1.42;1.10;;;6.40;99.90;;;;;;6166707;23;20024;-93
2022/04/04 12:21:09;;;;;;;0.43;0.43;;;6.40;99.90;;;;;;6169778;23;20039;-93
2022/04/04 12:26:25;;;;;;;0.55;0.55;;;6.40;99.90;;;;;;6217732;23;20024;-91
2022/04/04 12:28:53;;;;;;;1.67;0.73;;;6.50;99.90;;;;;;6218567;23;20024;-91
2022/04/04 12:31:27;;;;;;;0.60;0.60;;;6.40;99.90;;;;;;6217466;23;20479;-90
2022/04/04 12:34:09;;;;;;;0.88;0.88;;;6.80;99.90;;;;;;6218211;23;20031;-90
2022/04/04 12:36:40;;;;;;;2.38;0.60;;;6.60;99.90;;;;;;6168476;23;20016;-91
2022/04/04 12:39:19;;;;;;;0.63;0.50;;;6.60;99.90;;;;;;6217729;23;20016;-86
2022/04/04 12:41:51;;;;;;;0.68;0.60;;;6.60;99.90;;;;;;6245151;23;20036;-91
2022/04/04 12:44:22;;;;;;;0.95;0.68;;;6.70;99.90;;;;;;6217441;23;20016;-92
2022/04/04 12:46:51;;;;;;;1.70;0.82;;;6.70;99.90;;;;;;6222623;23;20020;-91
2022/04/04 12:49:22;;;;;;;0.80;0.80;;;5.70;99.90;;;;;;6216058;23;20023;-92
2022/04/04 12:51:53;;;;;;;0.80;0.80;;;6.80;99.90;;;;;;6193147;23;20460;-91
2022/04/04 12:54:26;;;;;;;1.15;0.80;;;6.70;99.90;;;;;;6193185;23;20019;-91
2022/04/04 12:56:52;;;;;;;0.80;0.73;;;6.70;99.90;;;;;;6193411;23;20016;-91
2022/04/04 12:59:18;;;;;;;1.13;0.85;;;6.80;99.90;;;;;;6168418;23;20062;-90
2022/04/04 13:02:05;;;;;;;0.90;0.85;;;6.80;99.90;;;;;;6217851;23;20020;-91
2022/04/04 13:04:32;;;;;;;0.57;0.57;;;6.80;99.90;;;;;;6217519;23;20544;-91
2022/04/04 13:07:00;;;;;;;0.60;0.50;;;6.80;99.90;;;;;;6168593;23;20020;-91
2022/04/04 13:09:27;;;;;;;0.50;0.35;;;6.90;99.90;;;;;;6217518;23;20016;-91
2022/04/04 13:11:55;;;;;;;0.80;0.75;;;7.00;99.90;;;;;;6167745;23;20027;-90
2022/04/04 13:14:22;;;;;;;0.73;0.73;;;7.90;99.90;;;;;;6168389;23;20016;-91
2022/04/04 13:16:56;;;;;;;;;;;6.00;99.90;;;;;;6194558;23;20020;-92
2022/04/04 13:19:26;;;;;;;0.90;0.73;;;7.10;99.90;;;;;;6217493;23;20299;-91
2022/04/04 13:21:53;;;;;;;0.47;0.47;;;7.00;99.90;;;;;;6219190;23;20078;-90
2022/04/04 13:24:19;;;;;;;0.82;0.68;;;6.90;99.90;;;;;;6192776;23;20020;-90
2022/04/04 13:26:47;;;;;;;1.30;0.77;;;7.10;99.90;;;;;;6217449;23;20016;-91
2022/04/04 13:29:17;;;;;;;0.50;0.50;;;8.40;99.90;;;;;;6192371;23;20024;-90
2022/04/04 13:31:44;;;;;;;0.40;0.40;;;7.20;99.90;;;;;;6219707;23;20024;-91
2022/04/04 13:34:10;;;;;;;2.35;1.02;;;8.40;99.90;;;;;;6194742;23;20012;-90
2022/04/04 13:36:37;;;;;;;0.60;0.60;;;7.30;99.90;;;;;;6168720;23;20067;-90
2022/04/04 13:39:05;;;;;;;1.75;0.70;;;7.40;99.90;;;;;;6194649;23;20475;-90
2022/04/04 13:41:33;;;;;;;0.80;0.45;;;7.30;99.90;;;;;;6193816;23;20016;-90